Time;durP1;ratioP1;P1;durP2;ratioP2;P2;SDS_P1;SDS_P2;PMS_P1;PMS_P2;Temp;Humidity;BMP_temperature;BMP_pressure;BME280_temperature;BME280_humidity;BME280_pressure;Samples;Min_cycle;Max_cycle;Signal;HPM_P1;HPM_P2
2022/01/11 00:00:36;;;;;;;25.33;21.80;;;4.40;94.50;;;;;;5116694;28;20417;-44
2022/01/11 00:03:04;;;;;;;33.40;25.13;;;4.40;94.60;;;;;;5117284;28;20247;-45
2022/01/11 00:08:32;;;;;;;28.10;22.40;;;4.30;94.70;;;;;;5066136;28;20495;-45
2022/01/11 00:11:04;;;;;;;32.73;23.47;;;4.30;94.80;;;;;;5113219;28;20524;-45
2022/01/11 00:13:35;;;;;;;33.63;23.60;;;4.20;94.80;;;;;;5116156;28;20453;-44
2022/01/11 00:16:01;;;;;;;29.30;24.57;;;4.30;94.90;;;;;;5114788;28;20497;-45
2022/01/11 00:18:27;;;;;;;31.30;22.90;;;4.20;94.90;;;;;;5116816;28;20441;-45
2022/01/11 00:20:53;;;;;;;30.13;22.90;;;4.20;95.00;;;;;;5117314;28;20433;-44
2022/01/11 00:25:46;;;;;;;32.47;22.00;;;4.20;95.10;;;;;;5116866;28;20532;-45
2022/01/11 00:28:15;;;;;;;27.27;21.50;;;4.10;95.10;;;;;;5117144;28;20242;-44
2022/01/11 00:30:43;;;;;;;29.33;21.90;;;4.10;95.20;;;;;;5116867;28;20417;-45
2022/01/11 00:33:14;;;;;;;26.47;20.97;;;4.10;95.20;;;;;;5116707;28;20486;-42
2022/01/11 00:35:42;;;;;;;34.77;22.27;;;4.10;95.30;;;;;;5116888;28;20416;-42
2022/01/11 00:38:15;;;;;;;29.30;21.20;;;4.10;95.30;;;;;;5117113;28;20436;-45
2022/01/11 00:40:48;;;;;;;30.10;21.80;;;4.10;95.40;;;;;;5116517;28;20429;-44
2022/01/11 00:43:15;;;;;;;30.23;22.80;;;4.10;95.40;;;;;;5116809;28;20422;-45
2022/01/11 00:45:40;;;;;;;25.60;21.43;;;4.00;95.40;;;;;;5099302;28;20704;-45
2022/01/11 00:48:06;;;;;;;25.80;21.60;;;4.10;95.50;;;;;;5116616;28;20474;-44
2022/01/11 00:50:33;;;;;;;32.90;21.60;;;4.00;95.60;;;;;;5117253;28;20271;-46
2022/01/11 00:53:00;;;;;;;27.93;21.63;;;4.00;95.60;;;;;;5116728;28;20645;-45
2022/01/11 00:55:25;;;;;;;27.20;22.07;;;4.00;95.70;;;;;;5116619;28;20676;-45
2022/01/11 00:57:51;;;;;;;28.50;19.70;;;4.00;95.80;;;;;;5117182;28;20429;-45
2022/01/11 01:00:17;;;;;;;27.20;21.70;;;4.00;95.80;;;;;;5116901;28;20244;-41
2022/01/11 01:02:43;;;;;;;29.07;22.63;;;3.90;95.80;;;;;;5117372;28;20626;-42
2022/01/11 01:05:09;;;;;;;30.23;20.57;;;3.90;95.80;;;;;;5116718;28;20421;-44
2022/01/11 01:07:37;;;;;;;29.77;21.07;;;3.90;95.90;;;;;;5117019;28;20263;-44
2022/01/11 01:10:16;;;;;;;27.03;21.67;;;3.80;95.90;;;;;;5117153;28;20433;-45
2022/01/11 01:12:41;;;;;;;25.43;21.40;;;3.80;95.90;;;;;;5116538;28;20421;-45
2022/01/11 01:15:07;;;;;;;28.33;21.53;;;3.80;95.90;;;;;;5117250;28;20409;-44
2022/01/11 01:17:33;;;;;;;28.60;20.70;;;3.80;95.90;;;;;;5098865;28;20278;-44
2022/01/11 01:19:59;;;;;;;27.67;20.40;;;3.70;95.90;;;;;;5116998;28;20502;-45
2022/01/11 01:22:27;;;;;;;25.43;20.83;;;3.60;95.90;;;;;;5098886;28;20202;-44
2022/01/11 01:24:53;;;;;;;27.63;21.40;;;3.60;96.00;;;;;;5116918;28;20551;-45
2022/01/11 01:27:19;;;;;;;27.70;20.83;;;3.50;96.00;;;;;;5098271;28;20487;-45
2022/01/11 01:29:44;;;;;;;31.07;21.90;;;3.50;96.10;;;;;;5117427;28;20274;-45
2022/01/11 01:32:10;;;;;;;27.50;20.53;;;3.50;96.50;;;;;;5120393;28;20182;-44
2022/01/11 01:34:36;;;;;;;28.50;21.80;;;3.50;96.30;;;;;;5120399;28;20171;-45
2022/01/11 01:37:03;;;;;;;25.40;20.47;;;3.50;96.30;;;;;;5120723;28;20179;-44
2022/01/11 01:39:29;;;;;;;26.83;20.40;;;3.50;96.30;;;;;;5120531;28;20595;-43
2022/01/11 01:41:55;;;;;;;25.00;20.00;;;3.40;96.20;;;;;;5120277;28;20410;-44
2022/01/11 01:44:21;;;;;;;25.80;21.40;;;3.40;96.20;;;;;;5119973;28;20177;-43
2022/01/11 01:46:49;;;;;;;24.73;20.53;;;3.30;96.20;;;;;;5120111;28;20462;-43
2022/01/11 01:49:18;;;;;;;27.90;21.53;;;3.30;96.20;;;;;;5120273;28;20497;-43
2022/01/11 01:51:45;;;;;;;25.23;21.40;;;3.30;96.30;;;;;;5120518;28;20429;-43
2022/01/11 01:54:15;;;;;;;28.73;21.47;;;3.30;96.30;;;;;;5119823;28;20806;-43
2022/01/11 01:56:41;;;;;;;31.13;22.03;;;3.20;96.30;;;;;;5119876;28;20426;-40
2022/01/11 01:59:08;;;;;;;26.40;20.67;;;3.20;96.30;;;;;;5120093;28;20421;-44
2022/01/11 02:01:39;;;;;;;28.43;22.40;;;3.20;96.30;;;;;;5120111;28;20416;-44
2022/01/11 02:04:20;;;;;;;30.70;21.33;;;3.20;96.40;;;;;;5103841;28;20496;-44
2022/01/11 02:06:48;;;;;;;25.90;21.57;;;3.20;96.40;;;;;;5120543;28;20465;-44
2022/01/11 02:09:20;;;;;;;25.47;21.00;;;3.20;96.40;;;;;;5120679;28;20492;-44
2022/01/11 02:11:47;;;;;;;25.30;20.70;;;3.20;96.50;;;;;;5102651;28;20422;-43
2022/01/11 02:14:13;;;;;;;29.57;20.27;;;3.20;96.60;;;;;;5120805;28;20511;-44
2022/01/11 02:16:38;;;;;;;28.60;21.60;;;3.20;96.60;;;;;;5119264;28;20477;-44
2022/01/11 02:19:04;;;;;;;28.90;22.30;;;3.30;96.70;;;;;;5119043;28;20413;-44
2022/01/11 02:21:30;;;;;;;31.33;21.40;;;3.30;96.70;;;;;;5119112;28;20196;-44
2022/01/11 02:24:00;;;;;;;28.20;21.83;;;3.30;96.80;;;;;;5119514;28;20440;-44
2022/01/11 02:26:26;;;;;;;25.57;19.93;;;3.30;96.80;;;;;;5119038;28;20507;-43
2022/01/11 02:28:56;;;;;;;28.73;22.07;;;3.30;96.80;;;;;;5119265;28;20438;-45
2022/01/11 02:31:21;;;;;;;27.90;20.83;;;3.40;96.90;;;;;;5120281;28;20409;-44
2022/01/11 02:33:54;;;;;;;26.30;21.67;;;3.40;96.90;;;;;;5101969;28;20831;-44
2022/01/11 02:36:30;;;;;;;28.30;21.53;;;3.40;96.90;;;;;;5120108;28;20266;-44
2022/01/11 02:38:56;;;;;;;31.80;21.37;;;3.40;96.90;;;;;;5120076;28;20425;-44
2022/01/11 02:41:25;;;;;;;28.37;20.30;;;3.40;96.90;;;;;;5119909;28;20690;-44
2022/01/11 02:43:51;;;;;;;29.97;22.43;;;3.40;96.90;;;;;;5119866;28;20422;-44
2022/01/11 02:46:20;;;;;;;28.50;21.87;;;3.40;96.90;;;;;;5120436;28;20435;-44
2022/01/11 02:48:46;;;;;;;30.90;22.80;;;3.40;96.90;;;;;;5119835;28;20215;-44
2022/01/11 02:51:12;;;;;;;26.97;22.00;;;3.50;96.90;;;;;;5120418;28;20413;-44
2022/01/11 02:53:42;;;;;;;26.77;20.00;;;3.50;96.90;;;;;;5120332;28;20498;-44
2022/01/11 02:56:08;;;;;;;31.90;22.63;;;3.50;96.90;;;;;;5120055;28;20199;-44
2022/01/11 02:58:36;;;;;;;28.07;21.20;;;3.50;96.90;;;;;;5119652;28;20433;-44
2022/01/11 03:01:02;;;;;;;28.40;20.10;;;3.50;96.90;;;;;;5119682;28;20428;-44
2022/01/11 03:03:31;;;;;;;30.30;20.60;;;3.40;96.90;;;;;;5119389;28;20437;-44
2022/01/11 03:06:00;;;;;;;29.30;20.67;;;3.50;96.90;;;;;;5119769;28;20422;-44
2022/01/11 03:08:27;;;;;;;24.63;20.97;;;3.40;96.90;;;;;;5101095;28;20462;-44
2022/01/11 03:10:53;;;;;;;25.00;21.00;;;3.40;96.90;;;;;;5101553;28;20425;-43
2022/01/11 03:13:19;;;;;;;26.50;18.80;;;3.40;96.90;;;;;;5119605;28;20440;-43
2022/01/11 03:15:48;;;;;;;24.37;19.73;;;3.40;97.00;;;;;;5119331;28;20179;-44
2022/01/11 03:18:14;;;;;;;27.17;20.60;;;3.40;97.00;;;;;;5119070;28;20430;-43
2022/01/11 03:20:42;;;;;;;30.53;19.90;;;3.40;97.00;;;;;;5119797;28;20421;-44
2022/01/11 03:23:07;;;;;;;25.67;20.90;;;3.30;96.90;;;;;;5119217;28;20729;-44
2022/01/11 03:25:34;;;;;;;28.40;22.37;;;3.30;97.00;;;;;;5118791;28;20474;-43
2022/01/11 03:28:00;;;;;;;32.17;22.50;;;3.30;97.00;;;;;;5118611;28;20476;-44
2022/01/11 03:30:33;;;;;;;29.03;22.27;;;3.30;97.00;;;;;;5119013;28;20433;-44
2022/01/11 03:33:02;;;;;;;25.60;20.90;;;3.30;97.00;;;;;;5118393;28;20468;-43
2022/01/11 03:35:30;;;;;;;26.60;20.50;;;3.30;97.10;;;;;;5101114;28;20418;-44
2022/01/11 03:37:56;;;;;;;28.37;20.07;;;3.30;97.10;;;;;;5118460;28;20506;-42
2022/01/11 03:40:24;;;;;;;23.97;20.07;;;3.30;97.00;;;;;;5118302;28;20405;-44
2022/01/11 03:42:50;;;;;;;25.53;19.50;;;3.30;97.10;;;;;;5118222;28;20183;-43
2022/01/11 03:45:17;;;;;;;26.33;21.13;;;3.30;97.10;;;;;;5118872;28;20414;-43
2022/01/11 03:47:43;;;;;;;28.60;20.33;;;3.30;97.10;;;;;;5118744;28;20847;-44
2022/01/11 03:50:10;;;;;;;27.20;21.30;;;3.30;97.10;;;;;;5118904;28;20402;-43
2022/01/11 03:52:37;;;;;;;24.20;21.43;;;3.30;97.20;;;;;;5117725;28;20699;-43
2022/01/11 03:55:10;;;;;;;26.43;20.30;;;3.30;97.20;;;;;;5100085;28;20513;-44
2022/01/11 03:57:36;;;;;;;24.60;21.37;;;3.30;97.10;;;;;;5118822;28;20512;-44
2022/01/11 04:00:14;;;;;;;27.50;21.87;;;3.30;97.20;;;;;;5117856;28;20828;-44
2022/01/11 04:02:41;;;;;;;24.50;20.20;;;3.30;97.20;;;;;;5117586;28;20180;-44
2022/01/11 04:05:07;;;;;;;25.33;19.40;;;3.30;97.20;;;;;;5117051;28;20441;-44
2022/01/11 04:07:33;;;;;;;23.03;19.00;;;3.30;97.20;;;;;;5116965;28;20723;-44
2022/01/11 04:09:58;;;;;;;27.83;19.40;;;3.30;97.20;;;;;;5116935;28;20544;-43
2022/01/11 04:12:24;;;;;;;24.40;20.27;;;3.30;97.20;;;;;;5116725;28;20221;-44
2022/01/11 04:14:50;;;;;;;26.63;19.70;;;3.30;97.30;;;;;;5117408;28;20169;-44
2022/01/11 04:17:17;;;;;;;27.17;19.63;;;3.30;97.30;;;;;;5117469;28;20179;-44
2022/01/11 04:19:42;;;;;;;25.33;18.97;;;3.30;97.40;;;;;;5099442;28;20476;-43
2022/01/11 04:22:08;;;;;;;24.67;20.50;;;3.30;97.50;;;;;;5116986;28;20434;-44
2022/01/11 04:24:34;;;;;;;25.50;19.37;;;3.30;97.50;;;;;;5116787;28;20218;-44
2022/01/11 04:26:59;;;;;;;26.07;18.37;;;3.30;97.50;;;;;;5116874;28;20234;-44
2022/01/11 04:29:25;;;;;;;29.90;21.13;;;3.30;97.50;;;;;;5116381;28;20207;-43
2022/01/11 04:31:51;;;;;;;27.67;20.10;;;3.30;97.60;;;;;;5116720;28;20531;-44
2022/01/11 04:34:17;;;;;;;26.40;19.77;;;3.30;97.60;;;;;;5117363;28;20584;-43
2022/01/11 04:36:44;;;;;;;27.23;19.90;;;3.30;97.60;;;;;;5118039;28;20248;-43
2022/01/11 04:39:12;;;;;;;27.73;19.50;;;3.30;97.60;;;;;;5118129;28;20182;-44
2022/01/11 04:41:38;;;;;;;28.37;19.67;;;3.30;97.60;;;;;;5116870;28;20420;-44
2022/01/11 04:44:04;;;;;;;27.63;19.77;;;3.30;97.60;;;;;;5117198;28;20804;-44
2022/01/11 04:46:30;;;;;;;27.83;20.43;;;3.30;97.60;;;;;;5117179;28;20214;-44
2022/01/11 04:48:56;;;;;;;28.30;20.17;;;3.30;97.60;;;;;;5117424;28;20440;-44
2022/01/11 04:51:24;;;;;;;26.57;21.20;;;3.30;97.70;;;;;;5117969;28;20425;-44
2022/01/11 04:53:51;;;;;;;28.87;20.67;;;3.30;97.70;;;;;;5117662;28;20490;-43
2022/01/11 04:56:16;;;;;;;29.40;21.33;;;3.30;97.70;;;;;;5099809;28;20425;-44
2022/01/11 04:58:45;;;;;;;25.83;19.57;;;3.30;97.70;;;;;;5117471;28;20873;-43
2022/01/11 05:01:11;;;;;;;26.57;20.57;;;3.30;97.70;;;;;;5116593;28;20180;-44
2022/01/11 05:03:36;;;;;;;26.20;20.17;;;3.30;97.70;;;;;;5116906;28;20402;-46
2022/01/11 05:06:04;;;;;;;30.17;20.93;;;3.40;97.80;;;;;;5114803;28;20498;-47
2022/01/11 05:08:30;;;;;;;27.53;18.80;;;3.40;97.80;;;;;;5103124;28;20203;-47
2022/01/11 05:10:58;;;;;;;25.60;18.80;;;3.40;97.80;;;;;;5119441;28;20519;-47
2022/01/11 05:13:24;;;;;;;26.00;20.90;;;3.50;97.80;;;;;;5115316;28;20495;-47
2022/01/11 05:15:50;;;;;;;23.80;18.60;;;3.50;97.80;;;;;;5109668;28;20593;-47
2022/01/11 05:18:16;;;;;;;24.23;19.37;;;3.50;97.70;;;;;;5105292;28;20195;-47
2022/01/11 05:20:42;;;;;;;26.87;18.83;;;3.50;97.70;;;;;;5104912;28;20840;-47
2022/01/11 05:23:09;;;;;;;26.07;18.60;;;3.50;97.60;;;;;;5098293;28;20457;-47
2022/01/11 05:25:35;;;;;;;28.27;19.33;;;3.60;97.60;;;;;;5108946;28;20421;-47
2022/01/11 05:28:02;;;;;;;26.23;19.60;;;3.60;97.60;;;;;;5108756;28;20493;-47
2022/01/11 05:30:28;;;;;;;27.80;19.37;;;3.60;97.50;;;;;;5102766;28;20482;-47
2022/01/11 05:32:54;;;;;;;22.90;18.33;;;3.60;97.50;;;;;;5120170;28;21065;-47
2022/01/11 05:35:21;;;;;;;27.23;18.80;;;3.60;97.50;;;;;;5101800;28;20483;-47
2022/01/11 05:37:48;;;;;;;23.60;20.03;;;3.60;97.50;;;;;;5118824;28;20758;-47
2022/01/11 05:40:14;;;;;;;26.10;18.33;;;3.60;97.50;;;;;;5117658;28;20405;-47
2022/01/11 05:42:41;;;;;;;22.90;16.60;;;3.60;97.50;;;;;;5117897;28;20537;-47
2022/01/11 05:45:08;;;;;;;26.53;18.17;;;3.60;97.70;;;;;;5116835;28;20409;-47
2022/01/11 05:47:34;;;;;;;25.10;18.20;;;3.60;97.40;;;;;;5117774;28;20480;-47
2022/01/11 05:50:03;;;;;;;26.30;19.20;;;3.60;97.50;;;;;;5117640;28;20413;-47
2022/01/11 05:52:29;;;;;;;26.77;18.73;;;3.60;97.80;;;;;;5116347;28;20425;-48
2022/01/11 05:54:55;;;;;;;26.63;20.03;;;3.60;97.50;;;;;;5116509;28;20477;-48
2022/01/11 05:57:21;;;;;;;26.73;19.40;;;3.60;97.60;;;;;;5116240;28;20179;-46
2022/01/11 05:59:46;;;;;;;28.33;20.60;;;3.60;97.70;;;;;;5117233;28;20164;-46
2022/01/11 06:02:12;;;;;;;27.53;17.30;;;3.60;97.70;;;;;;5117715;28;20183;-46
2022/01/11 06:04:37;;;;;;;28.73;18.67;;;3.60;97.80;;;;;;5119441;28;20186;-46
2022/01/11 06:07:03;;;;;;;21.90;17.70;;;3.60;97.80;;;;;;5118873;28;20211;-46
2022/01/11 06:09:29;;;;;;;23.13;18.73;;;3.60;97.80;;;;;;5118568;28;20168;-46
2022/01/11 06:11:55;;;;;;;28.83;19.90;;;3.60;97.90;;;;;;5118164;28;20575;-46
2022/01/11 06:14:21;;;;;;;27.60;18.30;;;3.60;97.90;;;;;;5118356;28;20173;-46
2022/01/11 06:16:48;;;;;;;27.67;20.60;;;3.60;97.90;;;;;;5117158;28;20436;-45
2022/01/11 06:19:13;;;;;;;27.43;20.23;;;3.60;98.00;;;;;;5112531;28;20195;-46
2022/01/11 06:21:39;;;;;;;27.77;19.50;;;3.60;98.00;;;;;;5076879;28;20415;-46
2022/01/11 06:24:07;;;;;;;27.93;18.77;;;3.60;98.00;;;;;;5077447;28;20667;-46
2022/01/11 06:26:38;;;;;;;27.90;19.87;;;3.70;98.10;;;;;;5096680;28;20231;-46
2022/01/11 06:29:03;;;;;;;24.90;19.67;;;3.70;98.10;;;;;;5078833;28;20437;-46
2022/01/11 06:31:30;;;;;;;27.40;19.77;;;3.70;98.10;;;;;;5096443;28;20699;-46
2022/01/11 06:33:56;;;;;;;31.20;20.63;;;3.70;98.10;;;;;;5078935;28;20324;-46
2022/01/11 06:36:22;;;;;;;24.67;19.20;;;3.70;98.10;;;;;;5096337;28;20425;-46
2022/01/11 06:38:48;;;;;;;24.80;18.60;;;3.70;98.10;;;;;;5096525;28;20418;-46
2022/01/11 06:41:13;;;;;;;24.97;19.20;;;3.70;98.10;;;;;;5095931;28;20558;-46
2022/01/11 06:43:40;;;;;;;29.03;20.17;;;3.70;98.10;;;;;;5108142;28;20259;-46
2022/01/11 06:46:05;;;;;;;28.33;19.53;;;3.70;98.20;;;;;;5114784;28;20168;-46
2022/01/11 06:48:32;;;;;;;28.17;20.00;;;3.70;98.20;;;;;;5113832;28;20737;-46
2022/01/11 06:50:58;;;;;;;28.27;19.20;;;3.70;98.20;;;;;;5104030;28;20184;-46
2022/01/11 06:53:24;;;;;;;25.97;19.50;;;3.70;98.20;;;;;;5094895;28;20410;-46
2022/01/11 06:55:50;;;;;;;27.10;18.53;;;3.70;98.20;;;;;;5096241;28;20609;-46
2022/01/11 06:58:16;;;;;;;26.07;18.13;;;3.70;98.20;;;;;;5094773;28;20349;-46
2022/01/11 07:00:43;;;;;;;25.90;19.63;;;3.70;98.20;;;;;;5100021;28;20421;-46
2022/01/11 07:03:09;;;;;;;27.63;20.00;;;3.70;98.20;;;;;;5115944;28;20413;-46
2022/01/11 07:05:35;;;;;;;24.40;18.97;;;3.70;98.20;;;;;;5115893;28;20421;-46
2022/01/11 07:08:00;;;;;;;26.57;19.70;;;3.70;98.20;;;;;;5115911;28;20464;-46
2022/01/11 07:10:26;;;;;;;27.73;20.10;;;3.70;98.20;;;;;;5115749;28;20650;-47
2022/01/11 07:12:52;;;;;;;23.60;19.20;;;3.70;98.20;;;;;;5116125;28;20173;-46
2022/01/11 07:15:17;;;;;;;23.97;17.83;;;3.70;98.20;;;;;;5098893;28;20249;-46
2022/01/11 07:17:43;;;;;;;24.20;16.97;;;3.70;98.20;;;;;;5117865;28;20176;-46
2022/01/11 07:20:09;;;;;;;30.17;18.80;;;3.80;98.20;;;;;;5116932;28;20245;-46
2022/01/11 07:22:37;;;;;;;22.00;17.60;;;3.80;98.20;;;;;;5117983;28;20179;-46
2022/01/11 07:25:04;;;;;;;26.80;18.10;;;3.80;98.20;;;;;;5116838;28;20450;-46
2022/01/11 07:27:31;;;;;;;20.93;18.23;;;3.80;98.20;;;;;;5116973;28;20574;-46
2022/01/11 07:29:57;;;;;;;25.57;17.57;;;3.80;98.20;;;;;;5116280;28;20871;-46
2022/01/11 07:32:23;;;;;;;23.60;18.07;;;3.80;98.20;;;;;;5115886;28;20401;-46
2022/01/11 07:34:49;;;;;;;26.43;18.33;;;3.80;98.20;;;;;;5116629;28;20177;-47
2022/01/11 07:37:14;;;;;;;27.67;19.47;;;3.90;98.20;;;;;;5116855;28;20433;-47
2022/01/11 07:39:40;;;;;;;24.73;19.23;;;3.90;98.50;;;;;;5116031;28;20173;-46
2022/01/11 07:42:06;;;;;;;27.63;17.87;;;3.90;98.10;;;;;;5115563;28;20184;-46
2022/01/11 07:44:31;;;;;;;25.67;18.90;;;4.00;98.10;;;;;;5115707;28;20196;-46
2022/01/11 07:46:58;;;;;;;25.00;18.33;;;4.00;98.10;;;;;;5116459;28;20291;-46
2022/01/11 07:49:24;;;;;;;30.27;18.73;;;4.10;98.30;;;;;;5099675;28;20217;-46
2022/01/11 07:51:50;;;;;;;23.10;17.43;;;4.10;97.90;;;;;;5117295;28;20418;-46
2022/01/11 07:54:18;;;;;;;23.83;17.43;;;4.20;97.90;;;;;;5116744;28;20179;-46
2022/01/11 07:56:43;;;;;;;23.50;17.70;;;4.20;97.80;;;;;;5115320;28;20187;-46
2022/01/11 07:59:11;;;;;;;22.87;19.30;;;4.30;97.80;;;;;;5116571;28;20433;-46
2022/01/11 08:01:36;;;;;;;27.50;19.33;;;4.30;97.70;;;;;;5116427;28;20187;-47
2022/01/11 08:04:03;;;;;;;26.47;18.03;;;4.40;97.70;;;;;;5115638;28;20426;-47
2022/01/11 08:06:28;;;;;;;29.87;20.00;;;4.40;97.60;;;;;;5116557;28;20172;-46
2022/01/11 08:08:54;;;;;;;26.73;19.07;;;4.60;97.60;;;;;;5117046;28;20485;-47
2022/01/11 08:11:20;;;;;;;25.87;19.13;;;4.60;97.50;;;;;;5099178;28;20249;-47
2022/01/11 08:13:45;;;;;;;25.50;18.03;;;4.70;97.40;;;;;;5116812;28;20172;-47
2022/01/11 08:16:11;;;;;;;23.60;17.47;;;4.80;97.30;;;;;;5112578;28;20461;-47
2022/01/11 08:18:36;;;;;;;22.50;18.20;;;4.90;97.20;;;;;;5097714;28;20219;-47
2022/01/11 08:21:02;;;;;;;23.93;17.87;;;5.00;97.00;;;;;;5102180;28;20192;-47
2022/01/11 08:23:28;;;;;;;24.57;17.07;;;5.00;96.80;;;;;;5096448;28;20181;-47
2022/01/11 08:25:56;;;;;;;23.77;17.70;;;5.10;96.70;;;;;;5096365;28;20213;-47
2022/01/11 08:28:22;;;;;;;25.37;19.17;;;5.10;96.60;;;;;;5094551;28;20327;-47
2022/01/11 08:30:48;;;;;;;22.30;17.57;;;5.20;96.50;;;;;;5093745;28;20564;-47
2022/01/11 08:33:13;;;;;;;28.10;18.33;;;5.30;96.40;;;;;;5095298;28;20172;-47
2022/01/11 08:35:39;;;;;;;24.87;18.20;;;5.40;96.30;;;;;;5094498;28;20177;-47
2022/01/11 08:38:05;;;;;;;23.83;19.00;;;5.40;96.10;;;;;;5095602;28;20657;-46
2022/01/11 08:40:31;;;;;;;23.60;19.20;;;5.50;96.00;;;;;;5095465;28;20868;-46
2022/01/11 08:42:57;;;;;;;25.80;17.50;;;5.60;95.90;;;;;;5093546;28;20414;-47
2022/01/11 08:45:25;;;;;;;25.60;18.93;;;5.70;95.80;;;;;;5096086;28;20191;-46
2022/01/11 08:47:51;;;;;;;22.70;17.17;;;5.70;95.70;;;;;;5096671;28;20234;-47
2022/01/11 08:50:16;;;;;;;20.97;16.33;;;5.80;95.60;;;;;;5096209;28;20939;-46
2022/01/11 08:52:43;;;;;;;22.07;16.43;;;5.80;95.50;;;;;;5096418;28;20175;-46
2022/01/11 08:55:11;;;;;;;21.37;16.17;;;5.80;95.30;;;;;;5096689;28;20216;-46
2022/01/11 08:57:37;;;;;;;20.27;17.13;;;5.90;95.20;;;;;;5096417;28;20415;-46
2022/01/11 09:00:09;;;;;;;23.00;16.50;;;5.90;95.10;;;;;;5095136;28;20840;-46
2022/01/11 09:02:37;;;;;;;21.17;16.30;;;5.90;95.00;;;;;;5095526;28;20765;-46
2022/01/11 09:05:03;;;;;;;24.53;17.70;;;5.90;95.00;;;;;;5095708;28;20525;-46
2022/01/11 09:07:28;;;;;;;23.80;17.00;;;6.00;94.90;;;;;;5090855;28;20729;-47
2022/01/11 09:09:54;;;;;;;19.47;15.00;;;6.00;94.80;;;;;;5116766;28;20505;-47
2022/01/11 09:12:20;;;;;;;23.03;16.67;;;6.10;94.80;;;;;;5115857;28;20629;-47
2022/01/11 09:14:49;;;;;;;19.83;15.83;;;6.10;95.00;;;;;;5117076;28;20240;-47
2022/01/11 09:17:14;;;;;;;22.10;17.50;;;6.10;94.60;;;;;;5115747;28;20179;-47
2022/01/11 09:19:40;;;;;;;26.07;16.47;;;6.20;94.50;;;;;;5115653;28;20597;-47
2022/01/11 09:22:06;;;;;;;21.10;17.37;;;6.20;94.40;;;;;;5114016;28;20164;-47
2022/01/11 09:24:32;;;;;;;23.03;16.97;;;6.30;94.30;;;;;;5113773;28;20426;-47
2022/01/11 09:27:04;;;;;;;22.23;17.00;;;6.40;94.30;;;;;;5096076;28;20484;-47
2022/01/11 09:29:31;;;;;;;21.20;16.73;;;6.40;94.20;;;;;;5114525;28;20832;-47
2022/01/11 09:31:59;;;;;;;23.77;14.97;;;6.40;94.00;;;;;;5115170;28;20857;-48
2022/01/11 09:34:25;;;;;;;21.60;15.93;;;6.50;94.00;;;;;;5113935;28;20741;-46
2022/01/11 09:36:51;;;;;;;20.90;15.73;;;6.50;93.90;;;;;;5115336;28;20409;-46
2022/01/11 09:39:17;;;;;;;17.13;14.90;;;6.60;93.80;;;;;;5097420;28;20419;-45
2022/01/11 09:41:42;;;;;;;21.90;16.77;;;6.70;93.70;;;;;;5115807;28;20702;-45
2022/01/11 09:44:09;;;;;;;17.50;14.37;;;6.70;93.60;;;;;;5116165;28;20244;-46
2022/01/11 09:46:35;;;;;;;19.83;15.03;;;6.80;93.50;;;;;;5115701;28;20165;-46
2022/01/11 09:49:03;;;;;;;20.10;16.20;;;6.90;93.40;;;;;;5115466;28;20479;-47
2022/01/11 09:51:31;;;;;;;18.73;15.17;;;7.00;93.30;;;;;;5117297;28;20492;-47
2022/01/11 09:53:57;;;;;;;18.90;15.20;;;7.10;93.10;;;;;;5100672;28;20437;-46
2022/01/11 09:56:23;;;;;;;20.43;15.80;;;7.20;93.00;;;;;;5117088;28;20445;-47
2022/01/11 09:58:49;;;;;;;18.40;14.70;;;7.30;92.80;;;;;;5118136;28;20480;-47
2022/01/11 10:01:14;;;;;;;21.00;15.17;;;7.40;92.70;;;;;;5100099;28;20197;-47
2022/01/11 10:03:58;;;;;;;18.40;14.73;;;7.50;92.40;;;;;;5117356;28;20183;-47
2022/01/11 10:06:25;;;;;;;18.10;14.43;;;7.60;92.20;;;;;;5118849;28;20509;-47
2022/01/11 10:08:52;;;;;;;19.63;15.87;;;7.60;92.00;;;;;;5117570;28;20539;-47
2022/01/11 10:11:38;;;;;;;18.80;14.47;;;7.70;91.80;;;;;;5098928;28;20448;-47
2022/01/11 10:14:23;;;;;;;18.40;14.43;;;7.80;91.70;;;;;;5099961;28;20440;-47
2022/01/11 10:17:04;;;;;;;19.20;15.90;;;7.90;91.50;;;;;;5095412;28;20421;-47
2022/01/11 10:19:30;;;;;;;15.93;14.23;;;8.00;91.30;;;;;;5099588;28;20424;-47
2022/01/11 10:21:56;;;;;;;18.37;15.53;;;8.10;91.20;;;;;;5099120;28;20482;-47
2022/01/11 10:24:24;;;;;;;23.23;16.40;;;8.30;91.10;;;;;;5117328;28;20435;-47
2022/01/11 10:26:53;;;;;;;21.20;15.60;;;8.40;90.90;;;;;;5116537;28;20461;-46
2022/01/11 10:29:32;;;;;;;18.73;13.90;;;8.50;90.80;;;;;;5115328;28;20786;-46
2022/01/11 10:32:04;;;;;;;18.63;16.07;;;8.70;90.60;;;;;;5118533;28;20424;-46
2022/01/11 10:34:38;;;;;;;19.13;14.23;;;8.80;90.30;;;;;;5100653;28;20406;-46
2022/01/11 10:37:05;;;;;;;16.70;14.47;;;9.00;90.10;;;;;;5117121;28;20509;-47
2022/01/11 10:39:37;;;;;;;21.10;16.20;;;9.10;89.30;;;;;;5100679;28;20417;-46
2022/01/11 10:42:04;;;;;;;19.70;16.50;;;9.20;88.70;;;;;;5117845;28;20459;-46
2022/01/11 10:44:58;;;;;;;15.70;13.67;;;9.40;88.20;;;;;;5116957;28;20470;-46
2022/01/11 10:47:30;;;;;;;17.63;14.13;;;9.50;87.80;;;;;;5117980;28;20766;-47
2022/01/11 10:50:00;;;;;;;16.53;14.53;;;9.70;87.30;;;;;;5117711;28;20424;-47
2022/01/11 10:52:28;;;;;;;15.23;13.63;;;9.90;86.60;;;;;;5114827;28;20430;-48
2022/01/11 10:54:54;;;;;;;15.67;13.77;;;10.00;84.80;;;;;;5115219;28;20412;-48
2022/01/11 10:57:27;;;;;;;18.60;14.80;;;10.10;85.00;;;;;;5114735;28;20528;-48
2022/01/11 11:00:11;;;;;;;16.90;14.60;;;10.30;83.90;;;;;;5115716;28;20536;-48
2022/01/11 11:02:38;;;;;;;16.63;14.07;;;10.50;83.40;;;;;;5117224;28;20582;-48
2022/01/11 11:05:50;;;;;;;14.90;13.37;;;10.70;82.60;;;;;;5116193;28;20532;-47
2022/01/11 11:08:20;;;;;;;15.27;13.17;;;10.90;81.80;;;;;;5117395;28;20488;-47
2022/01/11 11:10:49;;;;;;;18.93;14.33;;;11.10;80.40;;;;;;5116363;28;20431;-47
2022/01/11 11:13:24;;;;;;;15.03;13.43;;;11.40;80.10;;;;;;5117155;28;20744;-48
2022/01/11 11:15:51;;;;;;;15.27;13.67;;;11.60;79.20;;;;;;5117965;28;20512;-48
2022/01/11 11:18:21;;;;;;;9.33;7.43;;;11.90;78.20;;;;;;5096450;28;20437;-47
2022/01/11 11:20:47;;;;;;;7.40;6.70;;;12.10;82.60;;;;;;5115355;28;20432;-40
2022/01/11 11:23:15;;;;;;;11.20;6.70;;;12.70;90.10;;;;;;5095362;28;20428;-39
2022/01/11 11:25:41;;;;;;;8.53;5.80;;;13.30;91.10;;;;;;5114572;28;20413;-39
2022/01/11 11:28:06;;;;;;;9.20;6.20;;;14.20;91.30;;;;;;5115363;28;20482;-39
2022/01/11 11:30:33;;;;;;;7.80;6.20;;;15.10;90.00;;;;;;5115769;28;20947;-40
2022/01/11 11:32:59;;;;;;;8.80;7.30;;;15.90;87.60;;;;;;5116747;28;20174;-39
2022/01/11 11:35:24;;;;;;;8.00;7.10;;;16.60;84.10;;;;;;5099571;28;20834;-41
2022/01/11 11:37:58;;;;;;;7.33;6.60;;;16.80;80.20;;;;;;5115376;28;20405;-41
2022/01/11 11:40:26;;;;;;;8.07;6.50;;;16.80;78.10;;;;;;5115408;28;20522;-39
2022/01/11 11:42:57;;;;;;;7.67;6.47;;;16.70;76.50;;;;;;5116478;28;20412;-39
2022/01/11 11:45:27;;;;;;;6.63;5.90;;;16.70;75.40;;;;;;5115618;28;20679;-40
2022/01/11 11:48:08;;;;;;;6.07;5.47;;;16.70;75.10;;;;;;5116783;28;20734;-40
2022/01/11 11:50:52;;;;;;;7.37;5.80;;;17.00;75.10;;;;;;5117218;28;20822;-39
2022/01/11 11:53:28;;;;;;;5.60;5.00;;;17.10;72.10;;;;;;5118286;28;21003;-39
2022/01/11 11:56:14;;;;;;;5.13;4.73;;;17.10;70.80;;;;;;5083600;28;20438;-39
2022/01/11 11:58:45;;;;;;;4.73;4.20;;;16.90;69.60;;;;;;5118298;28;20440;-42
2022/01/11 12:01:41;;;;;;;4.17;3.77;;;16.80;69.20;;;;;;5116640;28;20449;-40
2022/01/11 12:04:31;;;;;;;3.97;3.63;;;16.70;68.70;;;;;;5115850;28;20432;-39
2022/01/11 12:07:00;;;;;;;9.23;5.17;;;16.70;68.10;;;;;;5103023;28;20838;-39
2022/01/11 12:09:31;;;;;;;4.67;4.27;;;16.70;67.10;;;;;;5115617;28;20528;-41
2022/01/11 12:11:59;;;;;;;4.30;3.50;;;16.70;65.90;;;;;;5114896;28;20438;-40
2022/01/11 12:14:35;;;;;;;4.77;3.20;;;16.60;64.70;;;;;;5110639;28;20413;-39
2022/01/11 12:17:10;;;;;;;3.60;3.30;;;16.50;62.60;;;;;;5114409;28;20458;-40
2022/01/11 12:19:51;;;;;;;3.90;3.50;;;16.20;61.20;;;;;;5113416;28;20861;-39
2022/01/11 12:22:22;;;;;;;5.20;3.60;;;16.00;60.00;;;;;;5113349;28;20416;-39
2022/01/11 12:24:50;;;;;;;4.20;3.77;;;15.90;59.50;;;;;;5109483;28;20837;-39
2022/01/11 12:27:21;;;;;;;3.47;3.17;;;15.70;59.20;;;;;;5114580;28;20555;-41
2022/01/11 12:29:53;;;;;;;3.97;3.57;;;15.60;59.50;;;;;;5111572;28;20439;-40
2022/01/11 12:32:23;;;;;;;4.87;3.37;;;15.40;59.60;;;;;;5112423;28;20415;-39
2022/01/11 12:34:52;;;;;;;4.40;4.03;;;15.30;59.40;;;;;;5089053;28;20430;-39
2022/01/11 12:37:36;;;;;;;5.80;4.70;;;15.30;59.20;;;;;;5075974;28;20419;-39
2022/01/11 12:40:24;;;;;;;6.43;5.00;;;15.10;56.50;;;;;;5112741;28;20440;-40
2022/01/11 12:42:57;;;;;;;6.47;5.20;;;14.80;54.50;;;;;;5094530;28;20425;-40
2022/01/11 12:46:00;;;;;;;7.23;5.00;;;14.50;54.00;;;;;;5114865;28;20446;-39
2022/01/11 12:48:48;;;;;;;5.80;4.87;;;14.30;53.80;;;;;;5111934;28;20463;-39